Time;durP1;ratioP1;P1;durP2;ratioP2;P2;SDS_P1;SDS_P2;PMS_P1;PMS_P2;Temp;Humidity;BMP_temperature;BMP_pressure;BME280_temperature;BME280_humidity;BME280_pressure;Samples;Min_cycle;Max_cycle;Signal;HPM_P1;HPM_P2
2021/11/17 02:26:06;;;;;;;15.07;8.03;;;;;;;3.09;99.29;95869.91;5073961;28;20279;-79
2021/11/17 02:28:44;;;;;;;15.93;8.30;;;;;;;3.06;99.03;95863.25;5055583;28;20181;-78
2021/11/17 02:31:31;;;;;;;14.10;8.20;;;;;;;3.09;99.30;95869.91;5072689;28;20258;-79
2021/11/17 02:34:11;;;;;;;9.93;6.60;;;;;;;3.17;99.04;95874.59;5073303;28;20178;-78
2021/11/17 02:36:42;;;;;;;10.27;6.60;;;;;;;3.11;98.58;95863.78;5074074;28;20181;-79
2021/11/17 02:39:23;;;;;;;11.43;6.43;;;;;;;3.07;98.83;95864.06;5072154;28;20652;-78
2021/11/17 02:42:13;;;;;;;11.23;7.00;;;;;;;3.07;98.82;95867.44;5073172;28;20200;-79
2021/11/17 02:44:52;;;;;;;12.93;7.43;;;;;;;3.09;98.78;95867.34;5071934;28;20181;-79
2021/11/17 02:47:37;;;;;;;11.37;6.83;;;;;;;3.07;99.14;95864.88;5071975;28;20210;-79
2021/11/17 02:50:25;;;;;;;10.23;6.80;;;;;;;3.07;98.79;95867.44;5040240;28;20197;-78
2021/11/17 02:52:53;;;;;;;11.43;6.40;;;;;;;3.06;98.87;95870.13;5072105;28;20559;-79
2021/11/17 02:55:43;;;;;;;10.47;6.80;;;;;;;3.08;98.83;95866.53;5072571;28;20186;-79
2021/11/17 02:58:25;;;;;;;11.90;6.50;;;;;;;3.09;98.76;95868.22;5055717;28;20181;-79
2021/11/17 03:00:59;;;;;;;12.50;7.63;;;;;;;3.09;99.14;95870.78;5071892;28;20210;-79
2021/11/17 03:03:27;;;;;;;13.13;7.40;;;;;;;3.04;99.33;95859.94;5071916;28;20214;-79
2021/11/17 03:05:52;;;;;;;10.63;6.37;;;;;;;2.93;99.15;95859.78;5072722;28;20288;-79
2021/11/17 03:08:51;;;;;;;10.80;6.67;;;;;;;2.97;99.41;95861.25;5073537;28;20227;-79
2021/11/17 03:11:47;;;;;;;11.60;7.07;;;;;;;2.98;99.21;95862.06;5070981;28;20287;-79
2021/11/17 03:14:40;;;;;;;10.60;6.53;;;;;;;3.00;99.19;95866.19;5057206;28;20711;-80
2021/11/17 03:17:15;;;;;;;8.60;5.73;;;;;;;3.04;99.52;95864.25;5058258;28;20192;-79
2021/11/17 03:19:59;;;;;;;10.83;6.17;;;;;;;3.03;99.19;95855.75;5055707;28;20200;-78
2021/11/17 03:22:40;;;;;;;13.03;5.90;;;;;;;2.98;99.26;95856.94;5071714;28;20200;-79
2021/11/17 03:25:35;;;;;;;10.63;5.83;;;;;;;3.03;98.69;95849.78;5071399;28;20201;-78
2021/11/17 03:28:26;;;;;;;9.47;5.97;;;;;;;2.98;98.58;95850.06;5051123;28;20272;-79
2021/11/17 03:31:13;;;;;;;11.23;6.23;;;;;;;2.95;98.73;95849.44;5055436;28;20201;-78
2021/11/17 03:34:04;;;;;;;11.90;5.80;;;;;;;2.98;99.09;95857.75;5072321;28;20227;-79
2021/11/17 03:36:45;;;;;;;8.27;5.17;;;;;;;2.97;98.69;95862.97;5073658;28;20185;-79
2021/11/17 03:39:37;;;;;;;10.33;6.30;;;;;;;2.93;98.65;95867.50;5057141;28;20525;-78
2021/11/17 03:42:41;;;;;;;11.50;6.47;;;;;;;2.92;99.25;95862.47;5072353;28;20258;-78
2021/11/17 03:45:37;;;;;;;10.47;6.00;;;;;;;2.95;99.07;95860.53;5071326;28;20201;-79
2021/11/17 03:48:12;;;;;;;9.57;5.10;;;;;;;2.90;98.73;95859.13;5071918;28;20213;-79
2021/11/17 03:50:50;;;;;;;11.00;5.63;;;;;;;2.88;99.27;95874.63;5073211;28;20196;-79
2021/11/17 03:53:40;;;;;;;9.10;5.03;;;;;;;2.86;98.94;95873.91;5074697;28;20198;-78
2021/11/17 03:56:14;;;;;;;7.03;4.77;;;;;;;2.88;99.10;95874.63;5077052;28;20177;-79
2021/11/17 03:58:56;;;;;;;7.37;3.83;;;;;;;2.86;98.77;95873.09;5077100;28;20279;-79
2021/11/17 04:01:28;;;;;;;7.13;3.80;;;;;;;2.81;98.82;95871.59;5075244;28;20221;-79
2021/11/17 04:04:06;;;;;;;5.90;3.97;;;;;;;2.82;98.31;95877.56;5058327;28;20684;-78
2021/11/17 04:06:46;;;;;;;7.87;4.37;;;;;;;2.77;98.69;95870.16;5058649;28;20205;-79
2021/11/17 04:09:41;;;;;;;8.03;4.57;;;;;;;2.79;98.98;95872.63;5077065;28;20260;-79
2021/11/17 04:12:34;;;;;;;7.13;3.90;;;;;;;2.77;98.50;95882.16;5072910;28;20216;-79
2021/11/17 04:15:18;;;;;;;8.10;4.13;;;;;;;2.81;98.28;95881.03;5044190;28;20638;-80
2021/11/17 04:17:59;;;;;;;7.57;4.37;;;;;;;2.81;98.86;95875.91;5059322;28;20186;-79
2021/11/17 04:20:38;;;;;;;8.23;4.93;;;;;;;2.85;98.81;95877.38;5059454;28;20193;-78
2021/11/17 04:23:19;;;;;;;7.40;4.37;;;;;;;2.88;98.35;95878.94;5075535;28;20198;-78
2021/11/17 04:25:59;;;;;;;9.53;4.87;;;;;;;2.85;98.25;95882.53;5074944;28;20188;-79
2021/11/17 04:28:59;;;;;;;8.90;4.80;;;;;;;2.83;98.26;95874.09;5076646;28;20171;-79
2021/11/17 04:31:39;;;;;;;12.30;5.67;;;;;;;2.83;98.52;95882.63;5074950;28;20199;-79
2021/11/17 04:34:41;;;;;;;8.27;5.47;;;;;;;2.80;98.81;95875.09;5074283;28;20199;-79
2021/11/17 04:37:46;;;;;;;10.07;5.53;;;;;;;2.82;98.69;95875.00;5075510;28;20543;-78
2021/11/17 04:40:20;;;;;;;11.80;5.53;;;;;;;2.78;98.92;95870.97;5064386;28;20345;-79
2021/11/17 04:43:12;;;;;;;12.10;6.20;;;;;;;2.80;98.83;95879.38;5076678;28;20633;-78
2021/11/17 04:45:46;;;;;;;12.73;6.33;;;;;;;2.75;98.55;95879.69;5075402;28;20181;-79
2021/11/17 04:48:45;;;;;;;11.27;6.37;;;;;;;2.77;98.79;95877.03;5058417;28;20249;-79
2021/11/17 04:51:48;;;;;;;9.53;5.90;;;;;;;2.77;98.84;95884.72;5074853;28;20673;-79
2021/11/17 04:54:25;;;;;;;10.47;6.03;;;;;;;2.69;98.58;95879.22;5057840;28;20575;-78
2021/11/17 04:57:05;;;;;;;11.13;5.73;;;;;;;2.72;98.65;95873.91;5039337;28;20688;-79
2021/11/17 04:59:33;;;;;;;12.00;6.70;;;;;;;2.75;98.64;95881.44;5037849;28;20189;-79
2021/11/17 05:02:23;;;;;;;9.80;5.87;;;;;;;2.67;98.94;95876.75;5036279;28;20359;-79
2021/11/17 05:05:14;;;;;;;10.40;6.00;;;;;;;2.71;98.73;95874.81;5035646;28;20197;-79
2021/11/17 05:08:07;;;;;;;13.90;7.20;;;;;;;2.73;98.49;95880.66;5038931;28;20625;-79
2021/11/17 05:10:47;;;;;;;20.73;10.40;;;;;;;2.71;98.94;95882.50;5036102;28;20210;-78
2021/11/17 05:13:27;;;;;;;13.87;7.50;;;;;;;2.72;98.99;95889.28;5052105;28;20174;-79
2021/11/17 05:16:16;;;;;;;13.73;8.83;;;;;;;2.70;98.81;95878.28;5052822;28;20231;-79
2021/11/17 05:19:08;;;;;;;12.17;7.60;;;;;;;2.72;98.93;95879.03;5036327;28;20186;-79
2021/11/17 05:21:54;;;;;;;12.00;6.73;;;;;;;2.65;99.03;95880.31;5019341;28;20208;-79
2021/11/17 05:24:26;;;;;;;11.63;6.17;;;;;;;2.65;99.03;95877.75;5035139;28;20307;-78
2021/11/17 05:27:28;;;;;;;9.67;5.90;;;;;;;2.67;99.28;95881.88;5052865;28;20256;-78
2021/11/17 05:30:20;;;;;;;10.33;6.13;;;;;;;2.70;99.43;95889.38;5037960;28;20220;-78
2021/11/17 05:33:13;;;;;;;10.70;6.13;;;;;;;2.66;99.19;95895.63;5057648;28;20177;-79
2021/11/17 05:35:45;;;;;;;9.47;5.97;;;;;;;2.66;99.83;95892.22;5042633;28;20185;-79
2021/11/17 05:38:19;;;;;;;10.87;6.20;;;;;;;2.68;99.37;95893.78;5073835;28;20183;-79
2021/11/17 05:41:10;;;;;;;12.87;6.60;;;;;;;2.67;99.52;95896.44;5073554;28;20206;-79
2021/11/17 05:44:02;;;;;;;13.30;7.00;;;;;;;2.64;99.92;95897.44;5074655;28;20237;-79
2021/11/17 05:46:36;;;;;;;10.73;5.87;;;;;;;2.67;99.90;95904.13;5074178;28;20650;-79
2021/11/17 05:49:25;;;;;;;11.33;5.47;;;;;;;2.71;99.52;95915.84;5073018;28;20187;-78
2021/11/17 05:52:20;;;;;;;12.63;6.27;;;;;;;2.71;99.72;95916.66;5073576;28;20207;-76
2021/11/17 05:54:59;;;;;;;11.93;6.17;;;;;;;2.70;99.72;95915.03;5072184;28;20183;-78
2021/11/17 05:57:46;;;;;;;10.33;4.80;;;;;;;2.75;99.53;95923.28;5072151;28;20199;-78
2021/11/17 06:00:31;;;;;;;10.03;5.40;;;;;;;2.76;99.09;95919.81;5056087;28;20734;-78
2021/11/17 06:03:15;;;;;;;11.17;6.23;;;;;;;2.74;99.09;95925.91;5062433;28;20224;-77
2021/11/17 06:05:40;;;;;;;8.00;5.20;;;;;;;2.72;99.20;95930.31;5071593;28;20183;-77
2021/11/17 06:08:05;;;;;;;11.00;5.60;;;;;;;2.73;99.13;95926.84;5072489;28;20178;-77
2021/11/17 06:10:33;;;;;;;10.97;6.33;;;;;;;2.66;98.83;95933.25;5072078;28;20661;-77
2021/11/17 06:12:59;;;;;;;11.07;6.53;;;;;;;2.70;99.00;95927.03;5071325;28;20205;-78
2021/11/17 06:15:25;;;;;;;9.67;6.20;;;;;;;2.73;98.81;95924.25;5071082;28;20181;-78
2021/11/17 06:17:53;;;;;;;9.83;6.63;;;;;;;2.73;98.63;95921.69;5079670;28;20215;-78
2021/11/17 06:20:19;;;;;;;9.10;6.30;;;;;;;2.69;97.89;95917.69;5066089;28;20276;-78
2021/11/17 06:22:48;;;;;;;10.63;6.83;;;;;;;2.66;97.54;95921.25;5069571;28;20833;-78
2021/11/17 06:25:14;;;;;;;13.53;8.73;;;;;;;2.57;97.30;95926.09;5052852;28;20193;-78
2021/11/17 06:27:43;;;;;;;12.67;7.00;;;;;;;2.58;97.46;95927.75;5070595;28;20221;-78
2021/11/17 06:30:10;;;;;;;13.67;8.30;;;;;;;2.62;97.76;95935.16;5053744;28;20192;-78
2021/11/17 06:32:36;;;;;;;11.17;6.87;;;;;;;2.67;97.81;95942.59;5067153;28;20280;-77
2021/11/17 06:35:03;;;;;;;10.20;6.00;;;;;;;2.69;97.55;95936.47;5069661;28;20277;-79
2021/11/17 06:37:29;;;;;;;11.47;5.90;;;;;;;2.66;97.35;95940.94;5069646;28;20201;-78
2021/11/17 06:40:00;;;;;;;12.20;7.47;;;;;;;2.67;97.72;95932.34;5086345;28;20570;-77
2021/11/17 06:42:35;;;;;;;11.10;7.13;;;;;;;2.66;97.17;95935.81;5053137;28;20193;-79
2021/11/17 06:45:04;;;;;;;11.47;7.70;;;;;;;2.64;97.11;95937.63;5060867;28;20178;-78
2021/11/17 06:47:29;;;;;;;8.83;5.80;;;;;;;2.62;96.92;95944.59;5071055;28;20216;-78
2021/11/17 06:49:55;;;;;;;8.03;5.50;;;;;;;2.57;96.30;95944.88;5072813;28;20660;-79
2021/11/17 06:52:21;;;;;;;6.33;4.73;;;;;;;2.55;95.98;95944.94;5067898;28;20196;-79
2021/11/17 06:54:47;;;;;;;7.13;4.90;;;;;;;2.53;95.72;95939.09;5057007;28;20653;-81
2021/11/17 06:57:12;;;;;;;6.87;4.73;;;;;;;2.59;96.01;95945.59;5070804;28;20187;-79
2021/11/17 06:59:38;;;;;;;6.50;4.93;;;;;;;2.64;95.48;95953.84;5085596;28;20176;-79
2021/11/17 07:02:06;;;;;;;7.63;6.80;;;;;;;2.69;95.63;95956.97;5076532;28;20204;-83
2021/11/17 07:04:33;;;;;;;9.53;5.33;;;;;;;2.67;95.45;95971.63;5079003;28;20176;-78
2021/11/17 07:06:58;;;;;;;7.13;4.50;;;;;;;2.62;96.03;95971.06;5071968;28;20190;-80
2021/11/17 07:09:24;;;;;;;8.60;4.60;;;;;;;2.53;95.82;95969.03;5073534;28;20189;-82
2021/11/17 07:11:49;;;;;;;6.37;4.53;;;;;;;2.59;95.99;95983.25;5095105;28;20220;-82
2021/11/17 07:14:16;;;;;;;5.43;3.87;;;;;;;2.66;95.74;95984.53;5073857;28;20181;-83
2021/11/17 07:16:42;;;;;;;7.47;5.03;;;;;;;2.70;96.18;95993.69;5096693;28;20179;-82
2021/11/17 07:19:09;;;;;;;7.97;5.07;;;;;;;2.73;95.98;95996.06;5084795;28;20185;-81
2021/11/17 07:21:34;;;;;;;7.50;5.07;;;;;;;2.73;96.16;95996.91;5080329;28;20197;-81
2021/11/17 07:24:00;;;;;;;8.23;5.57;;;;;;;2.73;96.45;96006.34;5084405;28;20191;-82
2021/11/17 07:26:26;;;;;;;7.87;4.93;;;;;;;2.71;96.63;96009.00;5073356;28;20199;-82
2021/11/17 07:28:51;;;;;;;9.80;5.37;;;;;;;2.73;96.77;96006.34;5075171;28;20205;-80
2021/11/17 07:31:17;;;;;;;6.83;4.67;;;;;;;2.77;96.37;96012.94;5063484;28;20568;-80
2021/11/17 07:33:42;;;;;;;6.13;4.30;;;;;;;2.78;96.48;96014.59;5073304;28;20225;-81
2021/11/17 07:36:07;;;;;;;7.67;4.90;;;;;;;2.70;96.79;96011.66;5065893;28;20210;-81
2021/11/17 07:38:33;;;;;;;7.43;4.53;;;;;;;2.76;96.85;96021.56;5065440;28;20184;-80
2021/11/17 07:40:58;;;;;;;7.17;3.87;;;;;;;2.75;96.77;96030.19;5081423;28;20201;-81
2021/11/17 07:43:26;;;;;;;5.73;3.50;;;;;;;2.70;96.78;96030.41;5068694;28;20176;-81
2021/11/17 07:45:51;;;;;;;4.70;3.77;;;;;;;2.73;96.61;96026.84;5064665;28;20174;-80
2021/11/17 07:48:19;;;;;;;5.20;3.90;;;;;;;2.68;97.19;96028.88;5085497;28;20238;-80
2021/11/17 07:50:45;;;;;;;3.83;3.03;;;;;;;2.74;96.84;96039.59;5066956;28;20307;-80
2021/11/17 07:53:11;;;;;;;5.43;3.43;;;;;;;2.67;96.56;96042.59;5063440;28;20192;-79
2021/11/17 07:55:40;;;;;;;4.67;3.20;;;;;;;2.66;96.75;96048.66;5085423;28;20188;-80
2021/11/17 07:58:07;;;;;;;3.70;2.73;;;;;;;2.61;96.63;96058.34;5060625;28;20182;-80
2021/11/17 08:00:33;;;;;;;4.63;3.40;;;;;;;2.53;96.49;96051.88;5086785;28;20196;-80
2021/11/17 08:03:00;;;;;;;3.73;2.87;;;;;;;2.59;95.90;96055.03;5062752;28;20203;-80
2021/11/17 08:05:26;;;;;;;5.17;4.50;;;;;;;2.55;96.38;96062.88;5085230;28;20582;-80
2021/11/17 08:07:52;;;;;;;11.03;7.93;;;;;;;2.44;96.69;96057.53;5092346;28;20272;-79
2021/11/17 08:10:20;;;;;;;5.87;3.63;;;;;;;2.37;96.87;96055.41;5072914;28;20222;-80
2021/11/17 08:12:46;;;;;;;4.63;3.40;;;;;;;2.33;96.79;96057.31;5060160;28;20182;-81
2021/11/17 08:15:12;;;;;;;5.27;3.80;;;;;;;2.41;96.68;96060.28;5070539;28;20208;-79
2021/11/17 08:17:39;;;;;;;5.87;3.77;;;;;;;2.43;96.44;96055.88;5077554;28;20726;-80
2021/11/17 08:20:06;;;;;;;7.27;4.30;;;;;;;2.38;96.57;96054.47;5087862;28;20177;-79
2021/11/17 08:22:31;;;;;;;5.60;3.77;;;;;;;2.42;96.73;96058.53;5089176;28;20200;-79
2021/11/17 08:24:57;;;;;;;5.33;3.70;;;;;;;2.41;96.49;96057.72;5076100;28;20185;-80
2021/11/17 08:27:22;;;;;;;5.47;4.00;;;;;;;2.41;96.94;96060.28;5072516;28;20243;-80
2021/11/17 08:29:49;;;;;;;6.63;5.13;;;;;;;2.38;96.92;96063.00;5074286;28;20189;-81
2021/11/17 08:32:15;;;;;;;5.93;4.37;;;;;;;2.38;96.74;96069.84;5078450;28;20796;-79
2021/11/17 08:34:41;;;;;;;5.33;3.90;;;;;;;2.29;96.19;96068.63;5078516;28;20649;-79
2021/11/17 08:37:06;;;;;;;7.33;5.20;;;;;;;2.30;96.71;96067.75;5079330;28;20223;-81
2021/11/17 08:39:32;;;;;;;13.20;10.10;;;;;;;2.31;96.61;96064.28;5074509;28;20185;-81
2021/11/17 08:41:57;;;;;;;11.47;9.90;;;;;;;2.34;96.90;96060.69;5079634;28;20197;-81
2021/11/17 08:44:22;;;;;;;17.27;14.63;;;;;;;2.39;96.28;96061.28;5082504;28;20253;-81
2021/11/17 08:46:48;;;;;;;12.90;11.60;;;;;;;2.44;96.74;96054.97;5074230;28;20193;-80
2021/11/17 08:49:13;;;;;;;14.03;12.63;;;;;;;2.39;96.34;96069.81;5073817;28;20181;-81
2021/11/17 08:51:39;;;;;;;16.17;14.07;;;;;;;2.42;96.70;96074.75;5060866;28;20209;-80
2021/11/17 08:54:04;;;;;;;10.87;9.77;;;;;;;2.57;96.58;96062.00;5079362;28;20181;-80
2021/11/17 08:56:32;;;;;;;9.90;8.57;;;;;;;2.50;96.32;96062.31;5102104;28;20205;-81
2021/11/17 08:58:57;;;;;;;7.87;5.70;;;;;;;2.49;96.13;96060.69;5101741;28;20172;-81
2021/11/17 09:01:22;;;;;;;5.43;4.73;;;;;;;2.54;96.15;96068.94;5099760;28;20200;-80
2021/11/17 09:03:47;;;;;;;6.73;4.10;;;;;;;2.58;96.26;96063.66;5098090;28;20252;-81
2021/11/17 09:06:14;;;;;;;6.33;4.30;;;;;;;2.62;95.81;96070.22;5080057;28;20243;-81
2021/11/17 09:08:40;;;;;;;6.13;4.27;;;;;;;2.68;95.68;96070.72;5073685;28;20351;-80
2021/11/17 09:11:09;;;;;;;4.73;4.07;;;;;;;2.75;95.28;96082.28;5069246;28;20208;-81
2021/11/17 09:13:34;;;;;;;4.00;3.60;;;;;;;2.76;94.39;96078.81;5057999;28;20243;-80
2021/11/17 09:16:00;;;;;;;4.80;2.73;;;;;;;2.88;93.36;96079.84;5059939;28;20189;-81
2021/11/17 09:18:29;;;;;;;2.70;2.50;;;;;;;2.88;92.96;96086.72;5066231;28;20179;-81
2021/11/17 09:20:56;;;;;;;3.47;2.90;;;;;;;2.87;92.93;96088.44;5067889;28;20581;-82
2021/11/17 09:23:23;;;;;;;4.10;2.73;;;;;;;2.94;92.89;96091.50;5084823;28;20185;-81
2021/11/17 09:25:49;;;;;;;13.33;8.00;;;;;;;3.01;93.22;96085.94;5091390;28;20280;-83
2021/11/17 09:28:14;;;;;;;6.60;4.87;;;;;;;3.06;92.24;96091.59;5080578;28;20231;-81
2021/11/17 09:30:41;;;;;;;4.47;2.63;;;;;;;2.95;91.73;96099.09;5092522;28;20663;-80
2021/11/17 09:33:10;;;;;;;4.10;2.87;;;;;;;2.98;91.52;96098.09;5086112;28;20194;-81
2021/11/17 09:35:35;;;;;;;4.47;4.07;;;;;;;3.00;90.99;96098.81;5069704;28;20178;-80
2021/11/17 09:38:03;;;;;;;3.17;2.17;;;;;;;2.93;90.48;96105.25;5079874;28;20188;-80
2021/11/17 09:40:32;;;;;;;2.50;2.03;;;;;;;2.96;90.13;96110.19;5093053;28;20196;-81
2021/11/17 09:42:58;;;;;;;2.87;2.23;;;;;;;3.05;90.61;96120.75;5068806;28;20184;-81
2021/11/17 09:45:24;;;;;;;4.43;2.17;;;;;;;3.06;90.79;96116.44;5096211;28;20629;-81
2021/11/17 09:47:50;;;;;;;1.97;1.77;;;;;;;2.99;89.74;96121.09;5078202;28;20242;-80
2021/11/17 09:50:35;;;;;;;2.67;1.90;;;;;;;2.99;90.43;96121.09;5076865;28;20190;-80
2021/11/17 09:53:07;;;;;;;2.33;1.97;;;;;;;2.98;90.09;96122.00;5086485;28;20165;-80
2021/11/17 09:55:41;;;;;;;2.93;2.00;;;;;;;3.02;91.08;96131.19;5059651;28;20192;-79
2021/11/17 09:58:19;;;;;;;3.27;2.10;;;;;;;3.08;91.07;96133.41;5063966;28;20504;-80
2021/11/17 10:00:50;;;;;;;4.80;2.37;;;;;;;3.01;90.58;96141.56;5084889;28;20646;-81
2021/11/17 10:03:26;;;;;;;2.73;2.40;;;;;;;3.11;91.46;96143.50;5075692;28;20660;-81
2021/11/17 10:06:47;;;;;;;4.57;2.03;;;;;;;3.17;90.89;96142.31;5076436;28;20180;-81
2021/11/17 10:12:57;;;;;;;2.77;2.43;;;;;;;3.10;90.84;96139.28;5093159;28;20212;-82
2021/11/17 10:14:57;;;;;;;3.63;2.20;;;;;;;3.14;90.38;96134.78;5065226;28;20201;-81
2021/11/17 10:17:57;;;;;;;2.67;2.00;;;;;;;3.16;90.39;96138.09;5085724;28;20270;-81
2021/11/17 10:20:30;;;;;;;8.40;5.87;;;;;;;3.24;89.78;96128.22;5074732;28;20277;-81
2021/11/17 10:23:21;;;;;;;2.60;2.10;;;;;;;3.22;90.00;96132.63;5085241;28;20182;-80
2021/11/17 10:25:53;;;;;;;5.13;4.07;;;;;;;3.28;90.14;96129.72;5071010;28;20287;-81
2021/11/17 10:28:31;;;;;;;6.90;4.83;;;;;;;3.08;89.96;96127.44;5078250;28;20208;-81
2021/11/17 10:31:06;;;;;;;6.37;4.67;;;;;;;3.18;90.52;96120.03;5075995;28;20245;-79
2021/11/17 10:34:04;;;;;;;4.43;4.00;;;;;;;3.21;90.69;96125.84;5094586;28;20557;-79
2021/11/17 10:36:50;;;;;;;3.10;2.30;;;;;;;2.92;90.46;96114.69;5063801;28;20193;-79
2021/11/17 10:39:27;;;;;;;2.97;2.50;;;;;;;3.01;91.53;96115.91;5061330;28;20239;-81
2021/11/17 10:42:01;;;;;;;2.60;2.30;;;;;;;3.13;91.58;96113.44;5082277;28;20197;-81
2021/11/17 10:44:37;;;;;;;4.00;2.80;;;;;;;3.20;90.94;96115.66;5063826;28;20216;-80
2021/11/17 10:47:13;;;;;;;3.47;3.17;;;;;;;3.39;91.39;96113.66;5062117;28;20209;-81
2021/11/17 10:49:44;;;;;;;3.50;2.80;;;;;;;3.38;90.46;96110.28;5090390;28;20180;-81
2021/11/17 10:52:11;;;;;;;2.30;2.10;;;;;;;3.41;90.92;96122.09;5076441;28;20210;-81
2021/11/17 10:54:48;;;;;;;3.50;2.20;;;;;;;3.35;90.90;96125.00;5067107;28;20254;-82
2021/11/17 10:57:21;;;;;;;6.50;4.33;;;;;;;3.43;90.69;96130.53;5084881;28;20175;-79
2021/11/17 10:59:48;;;;;;;13.80;7.83;;;;;;;3.40;90.61;96131.53;5072347;28;20184;-79
2021/11/17 11:02:14;;;;;;;34.57;16.73;;;;;;;3.48;91.01;96132.84;5058857;28;20212;-80
2021/11/17 11:04:47;;;;;;;12.53;8.30;;;;;;;3.49;90.80;96130.19;5083520;28;20559;-80
2021/11/17 11:07:36;;;;;;;9.63;7.40;;;;;;;3.47;89.88;96120.94;5083811;28;20213;-80
2021/11/17 11:10:23;;;;;;;14.00;10.27;;;;;;;3.63;90.74;96130.22;5084870;28;20192;-79
2021/11/17 11:12:50;;;;;;;29.80;15.90;;;;;;;3.68;90.02;96140.19;5076435;28;20185;-80
2021/11/17 11:15:20;;;;;;;9.47;5.77;;;;;;;3.36;89.53;96135.22;5073018;28;20188;-80
2021/11/17 11:18:16;;;;;;;14.80;10.27;;;;;;;3.41;89.77;96140.06;5058211;28;20556;-80
2021/11/17 11:20:45;;;;;;;12.47;7.57;;;;;;;3.34;89.16;96136.19;5073614;28;20217;-81
2021/11/17 11:23:22;;;;;;;9.70;6.50;;;;;;;3.43;89.61;96138.25;5072477;28;20764;-80
2021/11/17 11:25:49;;;;;;;7.47;5.67;;;;;;;3.41;89.68;96133.19;5075402;28;20203;-80
2021/11/17 11:28:20;;;;;;;4.23;3.43;;;;;;;3.39;89.70;96131.66;5073965;28;20797;-81
2021/11/17 11:30:47;;;;;;;4.53;4.13;;;;;;;3.35;89.54;96130.16;5071288;28;20209;-81
2021/11/17 11:33:22;;;;;;;4.43;4.03;;;;;;;3.29;90.00;96133.91;5057218;28;20639;-81
2021/11/17 11:36:09;;;;;;;3.80;3.40;;;;;;;3.32;89.79;96128.59;5064114;28;20254;-80
2021/11/17 11:38:36;;;;;;;3.53;2.80;;;;;;;3.33;90.24;96132.00;5081591;28;20828;-81
2021/11/17 11:41:10;;;;;;;3.90;2.83;;;;;;;3.25;89.68;96131.59;5076076;28;20205;-80
2021/11/17 11:43:37;;;;;;;3.53;2.83;;;;;;;3.26;90.05;96141.78;5060805;28;20188;-81
2021/11/17 11:46:35;;;;;;;2.73;2.17;;;;;;;3.30;88.90;96127.03;5066002;28;20181;-81
2021/11/17 11:49:05;;;;;;;4.53;2.23;;;;;;;3.24;90.00;96140.22;5061699;28;20207;-81
2021/11/17 11:51:32;;;;;;;2.30;1.73;;;;;;;3.17;89.08;96134.63;5052104;28;20255;-81
2021/11/17 11:53:58;;;;;;;3.80;1.90;;;;;;;3.21;89.24;96133.53;5061402;28;20222;-82
2021/11/17 11:56:36;;;;;;;2.80;2.50;;;;;;;3.21;89.46;96140.41;5074541;28;20188;-82
2021/11/17 11:59:08;;;;;;;2.83;2.03;;;;;;;3.25;89.96;96140.13;5067193;28;20551;-81
2021/11/17 12:01:34;;;;;;;2.10;1.80;;;;;;;3.29;89.20;96131.34;5074570;28;20207;-81
2021/11/17 12:04:32;;;;;;;4.57;3.07;;;;;;;3.29;88.90;96133.09;5087796;28;20199;-82
2021/11/17 12:07:03;;;;;;;3.10;2.80;;;;;;;3.24;88.26;96124.81;5020589;28;20281;-82
2021/11/17 12:09:33;;;;;;;3.87;3.30;;;;;;;3.25;88.32;96126.47;5018830;28;20196;-80
2021/11/17 12:12:07;;;;;;;4.97;4.07;;;;;;;3.30;88.61;96129.63;5013496;28;20788;-80
2021/11/17 12:14:44;;;;;;;3.10;2.80;;;;;;;3.19;88.36;96132.81;5018538;28;20277;-80
2021/11/17 12:17:09;;;;;;;3.17;2.63;;;;;;;3.20;88.97;96134.44;5038231;28;20249;-80
2021/11/17 12:19:42;;;;;;;3.60;2.87;;;;;;;3.23;89.00;96138.56;5042783;28;20190;-80
2021/11/17 12:22:17;;;;;;;4.83;4.07;;;;;;;3.14;88.89;96137.38;5038460;28;20206;-79
2021/11/17 12:24:51;;;;;;;5.63;4.80;;;;;;;3.18;89.67;96140.56;5012632;28;20227;-80
2021/11/17 12:27:31;;;;;;;2.50;2.10;;;;;;;3.16;89.53;96138.09;5042754;28;20317;-80
2021/11/17 12:30:05;;;;;;;4.07;3.60;;;;;;;3.16;89.86;96140.66;5011631;28;20190;-80
2021/11/17 12:32:39;;;;;;;2.10;1.90;;;;;;;3.10;90.26;96133.34;5049433;28;20764;-81
2021/11/17 12:35:13;;;;;;;6.67;6.13;;;;;;;3.08;90.32;96130.84;5037215;28;20199;-81
2021/11/17 12:37:52;;;;;;;40.73;28.73;;;;;;;3.03;90.22;96137.97;5035390;28;20245;-81
2021/11/17 12:40:50;;;;;;;6.00;4.80;;;;;;;3.09;90.64;96135.06;5035620;28;20213;-82
2021/11/17 12:43:30;;;;;;;3.93;3.40;;;;;;;3.19;90.42;96134.53;5083076;28;20197;-82
2021/11/17 12:46:04;;;;;;;3.40;3.10;;;;;;;3.05;90.81;96132.75;5075866;28;20208;-82
2021/11/17 12:48:40;;;;;;;3.60;2.77;;;;;;;3.11;90.53;96133.25;5077666;28;20206;-81
2021/11/17 12:51:18;;;;;;;4.17;2.80;;;;;;;3.08;90.72;96138.53;5095405;28;20268;-81
2021/11/17 12:54:08;;;;;;;4.50;2.97;;;;;;;3.13;90.76;96130.59;5069066;28;20673;-81
2021/11/17 12:56:39;;;;;;;3.57;2.83;;;;;;;3.11;90.05;96140.13;5073610;28;20252;-81
2021/11/17 12:59:14;;;;;;;3.70;2.70;;;;;;;3.11;90.56;96140.94;5082556;28;20197;-81
2021/11/17 13:01:51;;;;;;;4.33;3.03;;;;;;;3.13;90.81;96136.53;5098124;28;20232;-82
2021/11/17 13:04:24;;;;;;;4.90;3.27;;;;;;;3.03;90.54;96129.47;5081405;28;20207;-82
2021/11/17 13:06:56;;;;;;;4.13;3.10;;;;;;;3.11;90.27;96138.38;5103631;28;20239;-81
2021/11/17 13:09:27;;;;;;;4.43;3.60;;;;;;;3.04;90.51;96142.19;5080834;28;20181;-82
2021/11/17 13:12:00;;;;;;;6.73;3.73;;;;;;;2.99;91.14;96133.09;5088537;28;20714;-82
2021/11/17 13:14:50;;;;;;;4.10;3.70;;;;;;;3.12;91.17;96140.03;5092660;28;20206;-81
2021/11/17 13:17:22;;;;;;;5.87;4.07;;;;;;;3.10;90.95;96134.16;5085335;28;20185;-81
2021/11/17 13:19:51;;;;;;;5.53;4.30;;;;;;;3.08;91.43;96135.97;5086240;28;20242;-82
2021/11/17 13:22:29;;;;;;;54.27;26.13;;;;;;;3.04;91.40;96134.50;5068383;28;20272;-81
2021/11/17 13:25:18;;;;;;;20.30;12.57;;;;;;;3.10;91.65;96136.72;5084450;28;20188;-82
2021/11/17 13:27:47;;;;;;;6.73;4.77;;;;;;;2.82;92.55;96116.09;5088185;28;20242;-82
2021/11/17 13:30:27;;;;;;;5.70;4.27;;;;;;;2.88;92.30;96113.19;5087517;28;20225;-82
2021/11/17 13:32:53;;;;;;;5.67;4.60;;;;;;;2.71;94.17;96103.06;5088712;28;20177;-82
2021/11/17 13:35:36;;;;;;;7.50;6.40;;;;;;;2.88;93.67;96102.94;5067770;28;20200;-82
2021/11/17 13:38:14;;;;;;;6.63;5.03;;;;;;;2.86;93.17;96103.94;5086666;28;20219;-83
2021/11/17 13:40:40;;;;;;;8.63;4.47;;;;;;;2.95;92.35;96103.41;5090443;28;20210;-82
2021/11/17 13:43:07;;;;;;;5.87;4.60;;;;;;;2.99;92.42;96102.31;5083957;28;20625;-81
2021/11/17 13:45:33;;;;;;;6.97;4.70;;;;;;;3.13;91.83;96107.50;5092720;28;20181;-81
2021/11/17 13:47:58;;;;;;;5.13;4.33;;;;;;;3.03;91.61;96106.38;5078079;28;20200;-81
2021/11/17 13:50:28;;;;;;;6.30;4.40;;;;;;;3.16;91.01;96109.03;5083312;28;20183;-81
2021/11/17 13:52:55;;;;;;;5.63;3.60;;;;;;;3.15;91.23;96110.78;5092792;28;20173;-80
2021/11/17 13:55:26;;;;;;;7.43;6.00;;;;;;;3.23;91.20;96106.03;5080023;28;20190;-80
2021/11/17 13:57:52;;;;;;;12.57;8.53;;;;;;;3.33;90.90;96109.72;5069822;28;20173;-80
2021/11/17 14:00:19;;;;;;;26.07;15.63;;;;;;;3.39;90.94;96109.38;5093247;28;20185;-80
2021/11/17 14:02:47;;;;;;;12.37;8.30;;;;;;;3.52;90.73;96124.03;5075852;28;20189;-81
2021/11/17 14:05:13;;;;;;;6.47;4.47;;;;;;;3.51;90.03;96130.09;5081665;28;20177;-80
2021/11/17 14:07:38;;;;;;;5.80;4.03;;;;;;;3.55;90.38;96129.84;5069962;28;20208;-81
2021/11/17 14:10:06;;;;;;;5.57;3.87;;;;;;;3.63;89.68;96137.91;5081342;28;20189;-80
2021/11/17 14:12:32;;;;;;;7.53;5.10;;;;;;;3.74;90.08;96146.72;5066000;28;20193;-82
2021/11/17 14:14:58;;;;;;;8.63;4.80;;;;;;;3.75;89.71;96141.47;5084675;28;20189;-81
2021/11/17 14:17:24;;;;;;;5.47;4.57;;;;;;;3.73;89.67;96150.22;5065374;28;20182;-81
2021/11/17 14:19:50;;;;;;;5.50;4.03;;;;;;;3.84;90.13;96145.25;5065391;28;20180;-80
2021/11/17 14:22:15;;;;;;;7.47;6.77;;;;;;;3.83;89.83;96136.72;5073851;28;20213;-80
2021/11/17 14:24:41;;;;;;;7.77;5.37;;;;;;;3.88;90.07;96141.56;5078825;28;20221;-80
2021/11/17 14:27:08;;;;;;;5.23;4.73;;;;;;;3.82;89.02;96142.78;5079588;28;20678;-80
2021/11/17 14:29:43;;;;;;;5.73;4.70;;;;;;;3.83;88.93;96134.16;5099831;28;20654;-81
2021/11/17 14:32:15;;;;;;;5.87;4.40;;;;;;;3.90;89.12;96139.75;5072422;28;20334;-81
2021/11/17 14:34:40;;;;;;;4.50;3.57;;;;;;;3.90;88.70;96144.88;5079212;28;20185;-81
2021/11/17 14:37:06;;;;;;;5.57;4.57;;;;;;;4.02;89.35;96154.41;5062756;28;20195;-81
2021/11/17 14:39:34;;;;;;;4.90;3.67;;;;;;;3.95;89.17;96160.84;5090805;28;20183;-81
2021/11/17 14:41:59;;;;;;;5.30;4.07;;;;;;;3.85;88.33;96149.47;5082330;28;20200;-80